Latour, Missouri
Current Conditions -  °F | °C
As of 6:15 PM on Tuesday 25 Nov 2014 (Local Time) from KRCM Reporting Station
Clear Clear  
Wind Chill: 29°   Ceiling: Unl
Heat Index: 34°   Visibility: 10mi
Dew Point: 14°   Wind: 6mph
Humidity: 44%   Direction: 150°SSE
Pressure: 30.11"   Gusts: NA
Location:  38.5641°N, 94.1793°W
Report Text: KRCM 260015Z AUTO 15005KT 10SM CLR 01/M10 A3011 RMK AO2
Loading
Personal Weather Stations






























Interactive Weather Map New forecast layout! Learn more

10-Day Weather Forecast

Advertisements
Track Severe Weather on mobile